• Join FlightAware (Why Join?)
  • Login
  • US Flag 
03:18PM EST


 

Airport Tracker/Info


-or-


 

Live Flight TrackerFlight Track Log ✈ CTL309 ✈ 24-Sep-2013 ✈ KHOC - KBLF

Flight Track Log - Related Links

Times and Time Zones

All times are in EDT time to prevent confusion due to time zone crossing. See the CTL309 flight status page for this flight to view local times or setup timezone preferences in your user account.

Time Position Orientation Groundspeed Altitude Reporting Facility
EDT Latitude Longitude Course Direction KTS MPH feet Rate Location/Type
09:08PM 39.0850 -83.4344 136° Southeast 132 152 4,700  Level Indianapolis Center
09:09PM 39.0469 -83.3875 136° Southeast 152 175 5,400 540 Climbing Indianapolis Center
09:10PM 39.0156 -83.3503 137° Southeast 153 176 5,900 420 Climbing Indianapolis Center
09:11PM 38.9833 -83.3111 137° Southeast 158 182 6,300 420 Climbing Indianapolis Center
09:12PM 38.9564 -83.2664 128° Southeast 158 182 6,800 360 Climbing Indianapolis Center
09:13PM 38.9250 -83.2267 135° Southeast 160 184 7,100 300 Climbing Indianapolis Center
09:14PM 38.9939 -83.2904 136° Southeast  Level Estimated
09:14PM 38.8919 -83.1878 138° Southeast 160 184 7,500  Level Indianapolis Center
09:15PM 38.8594 -83.1444 134° Southeast 157 181 7,900 300 Climbing Indianapolis Center
09:16PM 38.8275 -83.1033 135° Southeast 162 186 8,200 300 Climbing Indianapolis Center
09:17PM 38.7958 -83.0614 134° Southeast 164 189 8,600 360 Climbing Indianapolis Center
09:18PM 38.7653 -83.0239 136° Southeast 153 176 9,000 180 Climbing Indianapolis Center
09:20PM 38.7314 -82.9856 139° Southeast 162 186 9,000  Level Indianapolis Center
09:21PM 38.6969 -82.9431 136° Southeast 169 194 9,000  Level Indianapolis Center
09:22PM 38.6600 -82.9022 139° Southeast 172 198 9,000  Level Indianapolis Center
09:23PM 38.6231 -82.8575 137° Southeast 171 197 9,000  Level Indianapolis Center
09:24PM 38.5881 -82.8158 137° Southeast 172 198 9,000  Level Indianapolis Center
09:25PM 38.5519 -82.7731 137° Southeast 174 200 9,100  Climbing Indianapolis Center
09:26PM 38.5114 -82.7217 135° Southeast 175 201 9,000  Descending Indianapolis Center
09:27PM 38.4769 -82.6811 137° Southeast 170 196 9,100  Climbing Indianapolis Center
09:28PM 38.4394 -82.6425 141° Southeast 171 197 9,000 -60 Descending Indianapolis Center
09:29PM 38.4033 -82.6003 137° Southeast 174 200 9,000  Level Indianapolis Center
09:30PM 38.3694 -82.5578 135° Southeast 172 198 9,100 -60 Climbing Indianapolis Center
09:31PM 38.3394 -82.5092 128° Southeast 172 198 8,900 -60 Descending Indianapolis Center
09:32PM 38.3056 -82.4708 138° Southeast 175 201 9,000  Climbing Indianapolis Center
09:33PM 38.2714 -82.4275 135° Southeast 173 199 9,000  Level Indianapolis Center
09:34PM 38.2292 -82.3769 137° Southeast 174 200 9,000  Level Indianapolis Center
09:35PM 38.1944 -82.3358 137° Southeast 172 198 9,000  Level Indianapolis Center
09:36PM 38.1606 -82.2928 135° Southeast 172 198 9,000  Level Indianapolis Center
09:37PM 38.1242 -82.2525 139° Southeast 173 199 9,000  Level Indianapolis Center
09:38PM 38.0861 -82.2136 141° Southeast 168 193 9,100  Climbing Indianapolis Center
09:39PM 38.0514 -82.1722 137° Southeast 170 196 9,000  Descending Indianapolis Center
09:40PM 38.0194 -82.1325 136° Southeast 172 198 9,100  Climbing Indianapolis Center
09:41PM 37.9853 -82.0894 135° Southeast 173 199 9,100 -60 Level Indianapolis Center
09:42PM 37.9506 -82.0467 136° Southeast 174 200 9,000  Descending Indianapolis Center
09:43PM 37.9164 -82.0050 136° Southeast 173 199 9,100 -60 Climbing Indianapolis Center
09:44PM 37.8831 -81.9614 134° Southeast 173 199 8,900 -60 Descending Indianapolis Center
09:45PM 37.8414 -81.9103 136° Southeast 174 200 9,000  Climbing Indianapolis Center
09:46PM 37.8111 -81.8736 136° Southeast 172 198 9,000  Level Indianapolis Center
09:47PM 37.7700 -81.8236 136° Southeast 174 200 9,000  Level Indianapolis Center
09:48PM 37.7358 -81.7797 135° Southeast 174 200 9,100  Climbing Indianapolis Center
09:49PM 37.7011 -81.7361 135° Southeast 175 201 9,100 -60 Level Indianapolis Center
09:50PM 37.6672 -81.6928 135° Southeast 173 199 9,000 -60 Descending Indianapolis Center
09:51PM 37.6294 -81.6536 141° Southeast 174 200 9,000 -480 Level Indianapolis Center
09:52PM 37.5922 -81.6039 133° Southeast 190 219 8,100 -900 Descending Indianapolis Center
09:53PM 37.5539 -81.5517 133° Southeast 200 230 7,200 -960 Descending Indianapolis Center
09:54PM 37.5136 -81.4983 134° Southeast 197 227 6,200 -600 Descending Indianapolis Center
09:55PM 37.4783 -81.4525 134° Southeast 190 219 6,000 -240 Descending Indianapolis Center